sensor_id;sensor_type;location;lat;lon;timestamp;P1;durP1;ratioP1;P2;durP2;ratioP2
14235;SDS011;7202;50.718;7.072;2023-05-09T00:00:04;13.85;;;12.32;;
14235;SDS011;7202;50.718;7.072;2023-05-09T00:02:38;14.35;;;10.68;;
14235;SDS011;7202;50.718;7.072;2023-05-09T00:05:08;12.98;;;11.68;;
14235;SDS011;7202;50.718;7.072;2023-05-09T00:07:37;11.85;;;10.65;;
14235;SDS011;7202;50.718;7.072;2023-05-09T00:10:06;13.00;;;11.38;;
14235;SDS011;7202;50.718;7.072;2023-05-09T00:12:35;12.77;;;11.48;;
14235;SDS011;7202;50.718;7.072;2023-05-09T00:15:04;13.00;;;11.57;;
14235;SDS011;7202;50.718;7.072;2023-05-09T00:17:34;15.38;;;12.00;;
14235;SDS011;7202;50.718;7.072;2023-05-09T00:20:07;13.60;;;12.20;;
14235;SDS011;7202;50.718;7.072;2023-05-09T00:22:37;15.25;;;11.75;;
14235;SDS011;7202;50.718;7.072;2023-05-09T00:25:07;14.98;;;13.38;;
14235;SDS011;7202;50.718;7.072;2023-05-09T00:27:37;14.48;;;12.82;;
14235;SDS011;7202;50.718;7.072;2023-05-09T00:30:06;13.98;;;12.48;;
14235;SDS011;7202;50.718;7.072;2023-05-09T00:32:35;17.02;;;13.27;;
14235;SDS011;7202;50.718;7.072;2023-05-09T00:35:07;14.90;;;13.40;;
14235;SDS011;7202;50.718;7.072;2023-05-09T00:37:36;16.02;;;13.10;;
14235;SDS011;7202;50.718;7.072;2023-05-09T00:40:05;15.88;;;14.27;;
14235;SDS011;7202;50.718;7.072;2023-05-09T00:42:35;14.75;;;13.18;;
14235;SDS011;7202;50.718;7.072;2023-05-09T00:45:04;16.80;;;14.38;;
14235;SDS011;7202;50.718;7.072;2023-05-09T00:47:33;19.98;;;15.10;;
14235;SDS011;7202;50.718;7.072;2023-05-09T00:50:02;17.95;;;14.98;;
14235;SDS011;7202;50.718;7.072;2023-05-09T00:52:33;15.73;;;14.05;;
14235;SDS011;7202;50.718;7.072;2023-05-09T00:55:03;16.25;;;14.60;;
14235;SDS011;7202;50.718;7.072;2023-05-09T00:57:34;14.93;;;13.30;;
14235;SDS011;7202;50.718;7.072;2023-05-09T01:00:03;16.80;;;14.52;;
14235;SDS011;7202;50.718;7.072;2023-05-09T01:02:39;25.85;;;15.35;;
14235;SDS011;7202;50.718;7.072;2023-05-09T01:05:08;15.93;;;13.35;;
14235;SDS011;7202;50.718;7.072;2023-05-09T01:07:42;19.17;;;15.63;;
14235;SDS011;7202;50.718;7.072;2023-05-09T01:10:19;18.92;;;15.25;;
14235;SDS011;7202;50.718;7.072;2023-05-09T01:12:54;18.23;;;16.17;;
14235;SDS011;7202;50.718;7.072;2023-05-09T01:15:31;19.23;;;14.90;;
14235;SDS011;7202;50.718;7.072;2023-05-09T01:18:05;17.77;;;15.70;;
14235;SDS011;7202;50.718;7.072;2023-05-09T01:20:41;19.23;;;16.15;;
14235;SDS011;7202;50.718;7.072;2023-05-09T01:23:28;21.63;;;16.85;;
14235;SDS011;7202;50.718;7.072;2023-05-09T01:26:17;22.20;;;16.65;;
14235;SDS011;7202;50.718;7.072;2023-05-09T01:28:54;21.60;;;17.42;;
14235;SDS011;7202;50.718;7.072;2023-05-09T01:31:39;19.95;;;17.40;;
14235;SDS011;7202;50.718;7.072;2023-05-09T01:34:12;20.83;;;17.08;;
14235;SDS011;7202;50.718;7.072;2023-05-09T01:36:43;19.65;;;17.10;;
14235;SDS011;7202;50.718;7.072;2023-05-09T01:39:17;20.20;;;17.50;;
14235;SDS011;7202;50.718;7.072;2023-05-09T01:41:46;19.30;;;15.60;;
14235;SDS011;7202;50.718;7.072;2023-05-09T01:44:17;18.95;;;15.57;;
14235;SDS011;7202;50.718;7.072;2023-05-09T01:46:48;22.23;;;16.80;;
14235;SDS011;7202;50.718;7.072;2023-05-09T01:49:21;20.58;;;16.45;;
14235;SDS011;7202;50.718;7.072;2023-05-09T01:51:50;19.38;;;17.23;;
14235;SDS011;7202;50.718;7.072;2023-05-09T01:54:21;19.40;;;16.42;;
14235;SDS011;7202;50.718;7.072;2023-05-09T01:56:52;22.10;;;17.52;;
14235;SDS011;7202;50.718;7.072;2023-05-09T01:59:23;20.67;;;17.98;;
14235;SDS011;7202;50.718;7.072;2023-05-09T02:01:53;18.58;;;15.55;;
14235;SDS011;7202;50.718;7.072;2023-05-09T02:04:23;21.05;;;17.10;;
14235;SDS011;7202;50.718;7.072;2023-05-09T02:06:52;22.30;;;17.17;;
14235;SDS011;7202;50.718;7.072;2023-05-09T02:09:23;21.23;;;18.02;;
14235;SDS011;7202;50.718;7.072;2023-05-09T02:11:51;21.42;;;17.08;;
14235;SDS011;7202;50.718;7.072;2023-05-09T02:14:21;18.95;;;16.33;;
14235;SDS011;7202;50.718;7.072;2023-05-09T02:16:51;18.75;;;16.60;;
14235;SDS011;7202;50.718;7.072;2023-05-09T02:19:20;18.80;;;16.67;;
14235;SDS011;7202;50.718;7.072;2023-05-09T02:21:48;22.42;;;16.45;;
14235;SDS011;7202;50.718;7.072;2023-05-09T02:24:17;19.75;;;17.60;;
14235;SDS011;7202;50.718;7.072;2023-05-09T02:26:45;19.50;;;15.93;;
14235;SDS011;7202;50.718;7.072;2023-05-09T02:29:15;20.58;;;16.88;;
14235;SDS011;7202;50.718;7.072;2023-05-09T02:31:45;21.70;;;17.95;;
14235;SDS011;7202;50.718;7.072;2023-05-09T02:34:18;18.83;;;16.75;;
14235;SDS011;7202;50.718;7.072;2023-05-09T02:36:47;19.63;;;17.52;;
14235;SDS011;7202;50.718;7.072;2023-05-09T02:39:16;19.38;;;16.88;;
14235;SDS011;7202;50.718;7.072;2023-05-09T02:41:47;22.33;;;17.92;;
14235;SDS011;7202;50.718;7.072;2023-05-09T02:44:16;21.08;;;17.55;;
14235;SDS011;7202;50.718;7.072;2023-05-09T02:46:44;22.50;;;17.17;;
14235;SDS011;7202;50.718;7.072;2023-05-09T02:49:14;22.05;;;18.23;;
14235;SDS011;7202;50.718;7.072;2023-05-09T02:52:00;19.85;;;16.58;;
14235;SDS011;7202;50.718;7.072;2023-05-09T02:54:28;18.95;;;16.88;;
14235;SDS011;7202;50.718;7.072;2023-05-09T02:56:57;21.77;;;17.45;;
14235;SDS011;7202;50.718;7.072;2023-05-09T02:59:27;19.02;;;16.90;;
14235;SDS011;7202;50.718;7.072;2023-05-09T03:02:01;19.98;;;17.75;;
14235;SDS011;7202;50.718;7.072;2023-05-09T03:04:30;20.20;;;17.05;;
14235;SDS011;7202;50.718;7.072;2023-05-09T03:07:01;19.65;;;16.50;;
14235;SDS011;7202;50.718;7.072;2023-05-09T03:09:32;21.10;;;16.70;;
14235;SDS011;7202;50.718;7.072;2023-05-09T03:12:01;18.60;;;16.42;;
14235;SDS011;7202;50.718;7.072;2023-05-09T03:14:29;19.10;;;15.93;;
14235;SDS011;7202;50.718;7.072;2023-05-09T03:16:59;19.92;;;16.52;;
14235;SDS011;7202;50.718;7.072;2023-05-09T03:19:33;18.80;;;16.48;;
14235;SDS011;7202;50.718;7.072;2023-05-09T03:22:03;19.15;;;17.13;;
14235;SDS011;7202;50.718;7.072;2023-05-09T03:24:35;19.15;;;15.48;;
14235;SDS011;7202;50.718;7.072;2023-05-09T03:27:04;19.58;;;16.13;;
14235;SDS011;7202;50.718;7.072;2023-05-09T03:29:33;19.52;;;15.98;;
14235;SDS011;7202;50.718;7.072;2023-05-09T03:32:03;18.48;;;15.95;;
14235;SDS011;7202;50.718;7.072;2023-05-09T03:34:32;17.80;;;15.90;;
14235;SDS011;7202;50.718;7.072;2023-05-09T03:37:02;17.83;;;15.52;;
14235;SDS011;7202;50.718;7.072;2023-05-09T03:39:33;19.10;;;15.73;;
14235;SDS011;7202;50.718;7.072;2023-05-09T03:42:01;16.75;;;15.02;;
14235;SDS011;7202;50.718;7.072;2023-05-09T03:44:30;18.95;;;16.83;;
14235;SDS011;7202;50.718;7.072;2023-05-09T03:46:59;20.00;;;17.00;;
14235;SDS011;7202;50.718;7.072;2023-05-09T03:49:34;18.90;;;15.27;;
14235;SDS011;7202;50.718;7.072;2023-05-09T03:52:05;19.60;;;15.43;;
14235;SDS011;7202;50.718;7.072;2023-05-09T03:54:34;17.98;;;15.82;;
14235;SDS011;7202;50.718;7.072;2023-05-09T03:57:03;18.63;;;16.60;;
14235;SDS011;7202;50.718;7.072;2023-05-09T03:59:31;22.13;;;17.10;;
14235;SDS011;7202;50.718;7.072;2023-05-09T04:02:00;20.35;;;16.70;;
14235;SDS011;7202;50.718;7.072;2023-05-09T04:04:30;20.15;;;17.17;;
14235;SDS011;7202;50.718;7.072;2023-05-09T04:06:59;19.38;;;17.00;;
14235;SDS011;7202;50.718;7.072;2023-05-09T04:09:30;18.17;;;16.23;;
14235;SDS011;7202;50.718;7.072;2023-05-09T04:11:59;20.50;;;16.40;;
14235;SDS011;7202;50.718;7.072;2023-05-09T04:14:27;19.85;;;17.33;;
14235;SDS011;7202;50.718;7.072;2023-05-09T04:16:56;21.60;;;17.55;;
14235;SDS011;7202;50.718;7.072;2023-05-09T04:19:25;22.73;;;18.02;;
14235;SDS011;7202;50.718;7.072;2023-05-09T04:21:54;20.92;;;17.10;;
14235;SDS011;7202;50.718;7.072;2023-05-09T04:24:22;19.42;;;17.33;;
14235;SDS011;7202;50.718;7.072;2023-05-09T04:26:52;22.25;;;18.63;;
14235;SDS011;7202;50.718;7.072;2023-05-09T04:29:23;22.90;;;17.20;;
14235;SDS011;7202;50.718;7.072;2023-05-09T04:31:54;17.85;;;15.95;;
14235;SDS011;7202;50.718;7.072;2023-05-09T04:34:25;21.23;;;17.45;;
14235;SDS011;7202;50.718;7.072;2023-05-09T04:36:56;20.73;;;17.63;;
14235;SDS011;7202;50.718;7.072;2023-05-09T04:39:25;20.30;;;16.88;;
14235;SDS011;7202;50.718;7.072;2023-05-09T04:42:03;20.60;;;17.17;;
14235;SDS011;7202;50.718;7.072;2023-05-09T04:44:32;23.48;;;18.55;;
14235;SDS011;7202;50.718;7.072;2023-05-09T04:47:01;20.65;;;17.88;;
14235;SDS011;7202;50.718;7.072;2023-05-09T04:49:30;19.27;;;16.48;;
14235;SDS011;7202;50.718;7.072;2023-05-09T04:51:59;20.00;;;17.48;;
14235;SDS011;7202;50.718;7.072;2023-05-09T04:54:27;20.75;;;18.00;;
14235;SDS011;7202;50.718;7.072;2023-05-09T04:56:56;21.27;;;17.25;;
14235;SDS011;7202;50.718;7.072;2023-05-09T04:59:45;20.58;;;17.55;;
14235;SDS011;7202;50.718;7.072;2023-05-09T05:02:14;20.23;;;18.10;;
14235;SDS011;7202;50.718;7.072;2023-05-09T05:04:44;20.67;;;17.90;;
14235;SDS011;7202;50.718;7.072;2023-05-09T05:07:13;20.10;;;17.40;;
14235;SDS011;7202;50.718;7.072;2023-05-09T05:09:43;21.33;;;16.52;;
14235;SDS011;7202;50.718;7.072;2023-05-09T05:12:12;17.15;;;15.35;;
14235;SDS011;7202;50.718;7.072;2023-05-09T05:14:41;21.30;;;18.73;;
14235;SDS011;7202;50.718;7.072;2023-05-09T05:17:16;18.45;;;15.95;;
14235;SDS011;7202;50.718;7.072;2023-05-09T05:19:45;21.02;;;17.35;;
14235;SDS011;7202;50.718;7.072;2023-05-09T05:22:15;21.60;;;18.00;;
14235;SDS011;7202;50.718;7.072;2023-05-09T05:24:45;23.10;;;18.55;;
14235;SDS011;7202;50.718;7.072;2023-05-09T05:27:14;24.27;;;19.33;;
14235;SDS011;7202;50.718;7.072;2023-05-09T05:29:42;22.85;;;17.73;;
14235;SDS011;7202;50.718;7.072;2023-05-09T05:32:11;22.10;;;18.85;;
14235;SDS011;7202;50.718;7.072;2023-05-09T05:34:41;22.27;;;18.65;;
14235;SDS011;7202;50.718;7.072;2023-05-09T05:37:10;22.08;;;17.15;;
14235;SDS011;7202;50.718;7.072;2023-05-09T05:39:40;26.80;;;20.23;;
14235;SDS011;7202;50.718;7.072;2023-05-09T05:42:09;22.88;;;18.58;;
14235;SDS011;7202;50.718;7.072;2023-05-09T05:44:38;21.70;;;19.33;;
14235;SDS011;7202;50.718;7.072;2023-05-09T05:47:07;22.45;;;18.70;;
14235;SDS011;7202;50.718;7.072;2023-05-09T05:49:37;24.67;;;18.48;;
14235;SDS011;7202;50.718;7.072;2023-05-09T05:52:07;23.48;;;17.95;;
14235;SDS011;7202;50.718;7.072;2023-05-09T05:54:36;19.33;;;16.65;;
14235;SDS011;7202;50.718;7.072;2023-05-09T05:57:04;22.30;;;19.17;;
14235;SDS011;7202;50.718;7.072;2023-05-09T05:59:34;21.40;;;18.13;;
14235;SDS011;7202;50.718;7.072;2023-05-09T06:02:03;19.92;;;17.80;;
14235;SDS011;7202;50.718;7.072;2023-05-09T06:04:33;21.80;;;17.85;;
14235;SDS011;7202;50.718;7.072;2023-05-09T06:07:02;21.27;;;18.17;;
14235;SDS011;7202;50.718;7.072;2023-05-09T06:09:32;20.15;;;16.30;;
14235;SDS011;7202;50.718;7.072;2023-05-09T06:12:01;18.58;;;15.95;;
14235;SDS011;7202;50.718;7.072;2023-05-09T06:14:30;18.55;;;15.55;;
14235;SDS011;7202;50.718;7.072;2023-05-09T06:16:59;17.75;;;15.85;;
14235;SDS011;7202;50.718;7.072;2023-05-09T06:19:28;19.15;;;15.98;;
14235;SDS011;7202;50.718;7.072;2023-05-09T06:21:57;17.50;;;15.70;;
14235;SDS011;7202;50.718;7.072;2023-05-09T06:24:26;21.23;;;15.52;;
14235;SDS011;7202;50.718;7.072;2023-05-09T06:27:04;19.80;;;15.82;;
14235;SDS011;7202;50.718;7.072;2023-05-09T06:29:32;16.50;;;14.80;;
14235;SDS011;7202;50.718;7.072;2023-05-09T06:32:01;18.58;;;15.68;;
14235;SDS011;7202;50.718;7.072;2023-05-09T06:34:30;17.70;;;14.55;;
14235;SDS011;7202;50.718;7.072;2023-05-09T06:36:58;16.20;;;14.43;;
14235;SDS011;7202;50.718;7.072;2023-05-09T06:39:27;16.48;;;14.75;;
14235;SDS011;7202;50.718;7.072;2023-05-09T06:41:56;17.05;;;14.35;;
14235;SDS011;7202;50.718;7.072;2023-05-09T06:44:31;18.00;;;14.68;;
14235;SDS011;7202;50.718;7.072;2023-05-09T06:47:00;15.70;;;14.05;;
14235;SDS011;7202;50.718;7.072;2023-05-09T06:49:28;18.63;;;14.38;;
14235;SDS011;7202;50.718;7.072;2023-05-09T06:51:57;15.57;;;13.00;;
14235;SDS011;7202;50.718;7.072;2023-05-09T06:54:25;18.48;;;12.98;;
14235;SDS011;7202;50.718;7.072;2023-05-09T06:56:54;11.88;;;10.68;;
14235;SDS011;7202;50.718;7.072;2023-05-09T06:59:23;11.90;;;10.23;;
14235;SDS011;7202;50.718;7.072;2023-05-09T07:01:53;12.07;;;9.20;;
14235;SDS011;7202;50.718;7.072;2023-05-09T07:04:22;9.90;;;8.55;;
14235;SDS011;7202;50.718;7.072;2023-05-09T07:06:50;9.55;;;8.43;;
14235;SDS011;7202;50.718;7.072;2023-05-09T07:09:19;12.43;;;8.68;;
14235;SDS011;7202;50.718;7.072;2023-05-09T07:11:49;9.48;;;8.32;;
14235;SDS011;7202;50.718;7.072;2023-05-09T07:14:18;9.27;;;8.13;;
14235;SDS011;7202;50.718;7.072;2023-05-09T07:16:47;9.25;;;8.23;;
14235;SDS011;7202;50.718;7.072;2023-05-09T07:19:17;8.18;;;7.38;;
14235;SDS011;7202;50.718;7.072;2023-05-09T07:21:45;7.20;;;6.50;;
14235;SDS011;7202;50.718;7.072;2023-05-09T07:24:14;7.05;;;6.20;;
14235;SDS011;7202;50.718;7.072;2023-05-09T07:26:43;6.78;;;6.10;;
14235;SDS011;7202;50.718;7.072;2023-05-09T07:29:11;6.22;;;5.38;;
14235;SDS011;7202;50.718;7.072;2023-05-09T07:31:40;5.50;;;5.00;;
14235;SDS011;7202;50.718;7.072;2023-05-09T07:34:09;5.25;;;4.75;;
14235;SDS011;7202;50.718;7.072;2023-05-09T07:36:39;5.93;;;4.57;;
14235;SDS011;7202;50.718;7.072;2023-05-09T07:39:07;4.82;;;4.32;;
14235;SDS011;7202;50.718;7.072;2023-05-09T07:41:36;5.88;;;3.80;;
14235;SDS011;7202;50.718;7.072;2023-05-09T07:44:05;4.57;;;4.00;;
14235;SDS011;7202;50.718;7.072;2023-05-09T07:46:35;4.32;;;3.40;;
14235;SDS011;7202;50.718;7.072;2023-05-09T07:49:06;6.05;;;4.05;;
14235;SDS011;7202;50.718;7.072;2023-05-09T07:51:35;5.88;;;3.75;;
14235;SDS011;7202;50.718;7.072;2023-05-09T07:54:05;3.78;;;3.47;;
14235;SDS011;7202;50.718;7.072;2023-05-09T07:56:36;3.65;;;3.30;;
14235;SDS011;7202;50.718;7.072;2023-05-09T07:59:04;4.93;;;3.40;;
14235;SDS011;7202;50.718;7.072;2023-05-09T08:01:33;4.50;;;3.50;;
14235;SDS011;7202;50.718;7.072;2023-05-09T08:04:01;5.22;;;3.85;;
14235;SDS011;7202;50.718;7.072;2023-05-09T08:06:32;3.95;;;3.30;;
14235;SDS011;7202;50.718;7.072;2023-05-09T08:09:01;3.28;;;3.00;;
14235;SDS011;7202;50.718;7.072;2023-05-09T08:11:32;3.47;;;3.17;;
14235;SDS011;7202;50.718;7.072;2023-05-09T08:14:02;6.80;;;3.70;;
14235;SDS011;7202;50.718;7.072;2023-05-09T08:16:30;6.38;;;3.15;;
14235;SDS011;7202;50.718;7.072;2023-05-09T08:18:59;4.40;;;3.00;;
14235;SDS011;7202;50.718;7.072;2023-05-09T08:21:28;6.22;;;2.90;;
14235;SDS011;7202;50.718;7.072;2023-05-09T08:23:56;6.93;;;2.60;;
14235;SDS011;7202;50.718;7.072;2023-05-09T08:26:26;2.55;;;2.35;;
14235;SDS011;7202;50.718;7.072;2023-05-09T08:28:56;2.92;;;2.30;;
14235;SDS011;7202;50.718;7.072;2023-05-09T08:31:25;2.67;;;2.42;;
14235;SDS011;7202;50.718;7.072;2023-05-09T08:33:53;4.60;;;2.38;;
14235;SDS011;7202;50.718;7.072;2023-05-09T08:36:22;2.75;;;2.35;;
14235;SDS011;7202;50.718;7.072;2023-05-09T08:38:51;3.92;;;2.50;;
14235;SDS011;7202;50.718;7.072;2023-05-09T08:41:20;2.72;;;2.17;;
14235;SDS011;7202;50.718;7.072;2023-05-09T08:43:53;4.45;;;2.55;;
14235;SDS011;7202;50.718;7.072;2023-05-09T08:46:25;3.08;;;2.50;;
14235;SDS011;7202;50.718;7.072;2023-05-09T08:48:57;2.42;;;2.20;;
14235;SDS011;7202;50.718;7.072;2023-05-09T08:51:28;4.95;;;2.67;;
14235;SDS011;7202;50.718;7.072;2023-05-09T08:54:01;2.70;;;2.33;;
14235;SDS011;7202;50.718;7.072;2023-05-09T08:56:30;2.53;;;2.33;;
14235;SDS011;7202;50.718;7.072;2023-05-09T08:59:00;2.60;;;2.30;;
14235;SDS011;7202;50.718;7.072;2023-05-09T09:01:33;2.35;;;2.15;;
14235;SDS011;7202;50.718;7.072;2023-05-09T09:04:03;5.25;;;2.20;;
14235;SDS011;7202;50.718;7.072;2023-05-09T09:06:33;2.47;;;2.28;;
14235;SDS011;7202;50.718;7.072;2023-05-09T09:09:04;2.30;;;2.10;;
14235;SDS011;7202;50.718;7.072;2023-05-09T09:11:35;2.33;;;2.05;;
14235;SDS011;7202;50.718;7.072;2023-05-09T09:14:05;2.90;;;2.00;;
14235;SDS011;7202;50.718;7.072;2023-05-09T09:16:41;2.92;;;2.20;;
14235;SDS011;7202;50.718;7.072;2023-05-09T09:19:15;2.20;;;2.00;;
14235;SDS011;7202;50.718;7.072;2023-05-09T09:21:45;2.30;;;2.10;;
14235;SDS011;7202;50.718;7.072;2023-05-09T09:24:18;2.38;;;2.17;;
14235;SDS011;7202;50.718;7.072;2023-05-09T09:26:50;2.55;;;2.00;;
14235;SDS011;7202;50.718;7.072;2023-05-09T09:29:18;2.47;;;2.28;;
14235;SDS011;7202;50.718;7.072;2023-05-09T09:31:52;3.17;;;2.15;;
14235;SDS011;7202;50.718;7.072;2023-05-09T09:34:22;3.28;;;2.30;;
14235;SDS011;7202;50.718;7.072;2023-05-09T09:36:50;3.80;;;1.90;;
14235;SDS011;7202;50.718;7.072;2023-05-09T09:39:19;2.55;;;2.35;;
14235;SDS011;7202;50.718;7.072;2023-05-09T09:41:48;2.25;;;2.08;;
14235;SDS011;7202;50.718;7.072;2023-05-09T09:44:17;3.08;;;2.13;;
14235;SDS011;7202;50.718;7.072;2023-05-09T09:46:47;3.28;;;2.25;;
14235;SDS011;7202;50.718;7.072;2023-05-09T09:49:18;2.90;;;2.13;;
14235;SDS011;7202;50.718;7.072;2023-05-09T09:51:49;2.38;;;2.17;;
14235;SDS011;7202;50.718;7.072;2023-05-09T09:54:18;3.97;;;2.45;;
14235;SDS011;7202;50.718;7.072;2023-05-09T09:56:48;3.33;;;1.90;;
14235;SDS011;7202;50.718;7.072;2023-05-09T09:59:20;2.83;;;2.25;;
14235;SDS011;7202;50.718;7.072;2023-05-09T10:01:54;2.97;;;2.40;;
14235;SDS011;7202;50.718;7.072;2023-05-09T10:04:34;2.67;;;2.47;;
14235;SDS011;7202;50.718;7.072;2023-05-09T10:07:04;3.50;;;2.90;;
14235;SDS011;7202;50.718;7.072;2023-05-09T10:09:40;2.83;;;2.47;;
14235;SDS011;7202;50.718;7.072;2023-05-09T10:12:09;4.40;;;2.85;;
14235;SDS011;7202;50.718;7.072;2023-05-09T10:14:40;2.97;;;2.60;;
14235;SDS011;7202;50.718;7.072;2023-05-09T10:17:10;3.75;;;2.55;;
14235;SDS011;7202;50.718;7.072;2023-05-09T10:19:43;3.53;;;2.45;;
14235;SDS011;7202;50.718;7.072;2023-05-09T10:22:13;4.30;;;2.72;;
14235;SDS011;7202;50.718;7.072;2023-05-09T10:24:45;3.78;;;2.80;;
14235;SDS011;7202;50.718;7.072;2023-05-09T10:27:17;3.20;;;2.42;;
14235;SDS011;7202;50.718;7.072;2023-05-09T10:29:50;5.47;;;2.90;;
14235;SDS011;7202;50.718;7.072;2023-05-09T10:32:25;2.80;;;2.60;;
14235;SDS011;7202;50.718;7.072;2023-05-09T10:35:01;3.90;;;2.97;;
14235;SDS011;7202;50.718;7.072;2023-05-09T10:37:33;3.80;;;2.40;;
14235;SDS011;7202;50.718;7.072;2023-05-09T10:40:03;2.85;;;2.50;;
14235;SDS011;7202;50.718;7.072;2023-05-09T10:42:33;3.83;;;2.40;;
14235;SDS011;7202;50.718;7.072;2023-05-09T10:45:03;5.07;;;2.40;;
14235;SDS011;7202;50.718;7.072;2023-05-09T10:47:33;4.78;;;2.85;;
14235;SDS011;7202;50.718;7.072;2023-05-09T10:50:04;3.85;;;2.40;;
14235;SDS011;7202;50.718;7.072;2023-05-09T10:52:34;3.63;;;2.30;;
14235;SDS011;7202;50.718;7.072;2023-05-09T10:55:23;3.92;;;2.70;;
14235;SDS011;7202;50.718;7.072;2023-05-09T10:58:17;3.80;;;2.60;;
14235;SDS011;7202;50.718;7.072;2023-05-09T11:00:46;3.83;;;2.58;;
14235;SDS011;7202;50.718;7.072;2023-05-09T11:03:16;3.63;;;2.30;;
14235;SDS011;7202;50.718;7.072;2023-05-09T11:05:49;3.50;;;2.55;;
14235;SDS011;7202;50.718;7.072;2023-05-09T11:08:20;4.93;;;2.65;;
14235;SDS011;7202;50.718;7.072;2023-05-09T11:10:52;3.45;;;2.75;;
14235;SDS011;7202;50.718;7.072;2023-05-09T11:13:22;3.38;;;2.40;;
14235;SDS011;7202;50.718;7.072;2023-05-09T11:16:07;3.17;;;2.47;;
14235;SDS011;7202;50.718;7.072;2023-05-09T11:18:50;2.78;;;2.50;;
14235;SDS011;7202;50.718;7.072;2023-05-09T11:21:21;3.85;;;2.50;;
14235;SDS011;7202;50.718;7.072;2023-05-09T11:23:49;4.68;;;2.38;;
14235;SDS011;7202;50.718;7.072;2023-05-09T11:26:21;2.22;;;2.05;;
14235;SDS011;7202;50.718;7.072;2023-05-09T11:28:58;3.13;;;2.20;;
14235;SDS011;7202;50.718;7.072;2023-05-09T11:31:28;3.05;;;2.25;;
14235;SDS011;7202;50.718;7.072;2023-05-09T11:33:59;3.00;;;2.22;;
14235;SDS011;7202;50.718;7.072;2023-05-09T11:36:33;2.70;;;2.20;;
14235;SDS011;7202;50.718;7.072;2023-05-09T11:39:03;4.05;;;2.08;;
14235;SDS011;7202;50.718;7.072;2023-05-09T11:41:40;5.28;;;2.30;;
14235;SDS011;7202;50.718;7.072;2023-05-09T11:44:13;3.03;;;1.98;;
14235;SDS011;7202;50.718;7.072;2023-05-09T11:46:43;2.38;;;1.80;;
14235;SDS011;7202;50.718;7.072;2023-05-09T11:49:13;3.45;;;2.20;;
14235;SDS011;7202;50.718;7.072;2023-05-09T11:51:44;3.63;;;1.98;;
14235;SDS011;7202;50.718;7.072;2023-05-09T11:54:12;4.85;;;2.33;;
14235;SDS011;7202;50.718;7.072;2023-05-09T11:56:41;3.28;;;2.05;;
14235;SDS011;7202;50.718;7.072;2023-05-09T11:59:10;3.15;;;1.83;;
14235;SDS011;7202;50.718;7.072;2023-05-09T12:01:40;3.42;;;1.65;;
14235;SDS011;7202;50.718;7.072;2023-05-09T12:04:09;2.55;;;2.22;;
14235;SDS011;7202;50.718;7.072;2023-05-09T12:06:38;3.47;;;1.77;;
14235;SDS011;7202;50.718;7.072;2023-05-09T12:09:08;3.40;;;1.90;;
14235;SDS011;7202;50.718;7.072;2023-05-09T12:11:37;2.60;;;1.70;;
14235;SDS011;7202;50.718;7.072;2023-05-09T12:14:05;2.15;;;1.95;;
14235;SDS011;7202;50.718;7.072;2023-05-09T12:16:34;3.50;;;2.03;;
14235;SDS011;7202;50.718;7.072;2023-05-09T12:19:13;3.15;;;2.00;;
14235;SDS011;7202;50.718;7.072;2023-05-09T12:21:45;1.67;;;1.58;;
14235;SDS011;7202;50.718;7.072;2023-05-09T12:24:20;2.97;;;1.92;;
14235;SDS011;7202;50.718;7.072;2023-05-09T12:26:48;3.15;;;1.70;;
14235;SDS011;7202;50.718;7.072;2023-05-09T12:29:18;1.60;;;1.50;;
14235;SDS011;7202;50.718;7.072;2023-05-09T12:31:47;2.80;;;1.70;;
14235;SDS011;7202;50.718;7.072;2023-05-09T12:34:16;3.55;;;1.80;;
14235;SDS011;7202;50.718;7.072;2023-05-09T12:36:45;1.92;;;1.52;;
14235;SDS011;7202;50.718;7.072;2023-05-09T12:39:16;2.03;;;1.45;;
14235;SDS011;7202;50.718;7.072;2023-05-09T12:41:49;1.52;;;1.42;;
14235;SDS011;7202;50.718;7.072;2023-05-09T12:44:27;3.40;;;1.60;;
14235;SDS011;7202;50.718;7.072;2023-05-09T12:46:57;1.75;;;1.30;;
14235;SDS011;7202;50.718;7.072;2023-05-09T12:49:27;5.00;;;1.30;;
14235;SDS011;7202;50.718;7.072;2023-05-09T12:51:57;2.22;;;1.60;;
14235;SDS011;7202;50.718;7.072;2023-05-09T12:54:30;1.40;;;1.30;;
14235;SDS011;7202;50.718;7.072;2023-05-09T12:57:00;1.50;;;1.30;;
14235;SDS011;7202;50.718;7.072;2023-05-09T12:59:31;1.60;;;1.40;;
14235;SDS011;7202;50.718;7.072;2023-05-09T13:02:00;2.72;;;2.53;;
14235;SDS011;7202;50.718;7.072;2023-05-09T13:04:28;2.33;;;1.58;;
14235;SDS011;7202;50.718;7.072;2023-05-09T13:06:57;1.63;;;1.38;;
14235;SDS011;7202;50.718;7.072;2023-05-09T13:09:26;1.92;;;1.30;;
14235;SDS011;7202;50.718;7.072;2023-05-09T13:11:55;4.13;;;1.50;;
14235;SDS011;7202;50.718;7.072;2023-05-09T13:14:25;1.83;;;1.48;;
14235;SDS011;7202;50.718;7.072;2023-05-09T13:16:53;1.95;;;1.40;;
14235;SDS011;7202;50.718;7.072;2023-05-09T13:19:22;2.65;;;1.70;;
14235;SDS011;7202;50.718;7.072;2023-05-09T13:21:51;2.10;;;1.60;;
14235;SDS011;7202;50.718;7.072;2023-05-09T13:24:21;3.08;;;1.63;;
14235;SDS011;7202;50.718;7.072;2023-05-09T13:26:50;2.45;;;1.42;;
14235;SDS011;7202;50.718;7.072;2023-05-09T13:29:18;1.85;;;1.33;;
14235;SDS011;7202;50.718;7.072;2023-05-09T13:31:48;3.78;;;1.58;;
14235;SDS011;7202;50.718;7.072;2023-05-09T13:34:17;2.00;;;1.45;;
14235;SDS011;7202;50.718;7.072;2023-05-09T13:36:45;2.67;;;1.50;;
14235;SDS011;7202;50.718;7.072;2023-05-09T13:39:14;4.03;;;1.52;;
14235;SDS011;7202;50.718;7.072;2023-05-09T13:41:42;3.30;;;1.50;;
14235;SDS011;7202;50.718;7.072;2023-05-09T13:44:11;1.95;;;1.60;;
14235;SDS011;7202;50.718;7.072;2023-05-09T13:46:40;3.22;;;1.40;;
14235;SDS011;7202;50.718;7.072;2023-05-09T13:49:10;3.38;;;1.50;;
14235;SDS011;7202;50.718;7.072;2023-05-09T13:51:39;2.13;;;1.40;;
14235;SDS011;7202;50.718;7.072;2023-05-09T13:54:07;1.73;;;1.40;;
14235;SDS011;7202;50.718;7.072;2023-05-09T13:56:38;2.95;;;1.70;;
14235;SDS011;7202;50.718;7.072;2023-05-09T13:59:07;1.40;;;1.30;;
14235;SDS011;7202;50.718;7.072;2023-05-09T14:01:36;1.40;;;1.30;;
14235;SDS011;7202;50.718;7.072;2023-05-09T14:04:05;3.08;;;1.63;;
14235;SDS011;7202;50.718;7.072;2023-05-09T14:06:35;3.55;;;1.55;;
14235;SDS011;7202;50.718;7.072;2023-05-09T14:09:04;4.65;;;1.73;;
14235;SDS011;7202;50.718;7.072;2023-05-09T14:11:33;2.00;;;1.80;;
14235;SDS011;7202;50.718;7.072;2023-05-09T14:14:01;1.85;;;1.63;;
14235;SDS011;7202;50.718;7.072;2023-05-09T14:16:30;4.60;;;1.50;;
14235;SDS011;7202;50.718;7.072;2023-05-09T14:18:58;3.47;;;1.65;;
14235;SDS011;7202;50.718;7.072;2023-05-09T14:21:27;2.55;;;1.50;;
14235;SDS011;7202;50.718;7.072;2023-05-09T14:23:57;6.70;;;1.90;;
14235;SDS011;7202;50.718;7.072;2023-05-09T14:26:26;2.42;;;1.83;;
14235;SDS011;7202;50.718;7.072;2023-05-09T14:28:54;4.95;;;1.80;;
14235;SDS011;7202;50.718;7.072;2023-05-09T14:31:23;3.67;;;2.17;;
14235;SDS011;7202;50.718;7.072;2023-05-09T14:33:51;6.93;;;3.47;;
14235;SDS011;7202;50.718;7.072;2023-05-09T14:36:20;1.92;;;1.83;;
14235;SDS011;7202;50.718;7.072;2023-05-09T14:38:49;2.00;;;1.80;;
14235;SDS011;7202;50.718;7.072;2023-05-09T14:41:19;4.25;;;1.77;;
14235;SDS011;7202;50.718;7.072;2023-05-09T14:43:48;3.00;;;2.50;;
14235;SDS011;7202;50.718;7.072;2023-05-09T14:46:16;2.38;;;2.10;;
14235;SDS011;7202;50.718;7.072;2023-05-09T14:48:45;2.33;;;2.10;;
14235;SDS011;7202;50.718;7.072;2023-05-09T14:51:14;4.93;;;2.65;;
14235;SDS011;7202;50.718;7.072;2023-05-09T14:53:42;5.63;;;2.33;;
14235;SDS011;7202;50.718;7.072;2023-05-09T14:56:11;3.90;;;2.50;;
14235;SDS011;7202;50.718;7.072;2023-05-09T14:58:41;4.32;;;2.33;;
14235;SDS011;7202;50.718;7.072;2023-05-09T15:01:09;5.07;;;2.50;;
14235;SDS011;7202;50.718;7.072;2023-05-09T15:03:39;6.72;;;3.20;;
14235;SDS011;7202;50.718;7.072;2023-05-09T15:06:07;10.73;;;4.07;;